createdAt,value
2023-04-24T00:00:41.857Z,9.77
2023-04-24T00:03:10.332Z,9.78
2023-04-24T00:05:44.843Z,9.78
2023-04-24T00:08:13.471Z,9.80
2023-04-24T00:10:56.876Z,9.77
2023-04-24T00:13:25.229Z,9.93
2023-04-24T00:15:53.431Z,9.81
2023-04-24T00:18:21.608Z,9.77
2023-04-24T00:20:49.792Z,10.36
2023-04-24T00:23:17.959Z,9.79
2023-04-24T00:25:46.146Z,9.83
2023-04-24T00:28:16.453Z,9.79
2023-04-24T00:30:44.633Z,9.83
2023-04-24T00:33:12.838Z,9.89
2023-04-24T00:35:41.028Z,9.96
2023-04-24T00:38:09.249Z,9.74
2023-04-24T00:40:37.622Z,9.85
2023-04-24T00:43:06.089Z,9.94
2023-04-24T00:45:36.171Z,9.76
2023-04-24T00:48:04.628Z,9.84
2023-04-24T00:50:33.460Z,9.81
2023-04-24T00:53:01.913Z,9.86
2023-04-24T00:55:31.048Z,9.84
2023-04-24T00:58:22.937Z,9.96
2023-04-24T01:00:54.204Z,9.91
2023-04-24T01:03:23.971Z,9.85
2023-04-24T01:05:52.762Z,9.87
2023-04-24T01:08:21.819Z,9.76
2023-04-24T01:10:50.843Z,9.91
2023-04-24T01:13:22.811Z,9.78
2023-04-24T01:15:52.544Z,9.93
2023-04-24T01:18:22.857Z,9.89
2023-04-24T01:20:55.943Z,9.97
2023-04-24T01:23:27.577Z,9.94
2023-04-24T01:25:55.998Z,10.19
2023-04-24T01:28:24.855Z,10.01
2023-04-24T01:30:53.706Z,9.98
2023-04-24T01:33:25.224Z,10.10
2023-04-24T01:35:53.933Z,10.12
2023-04-24T01:38:22.320Z,10.08
2023-04-24T01:40:52.255Z,10.16
2023-04-24T01:43:21.192Z,10.07
2023-04-24T01:45:49.408Z,10.07
2023-04-24T01:48:17.679Z,10.08
2023-04-24T01:50:45.897Z,10.05
2023-04-24T01:53:14.371Z,9.99
2023-04-24T01:55:43.176Z,9.95
2023-04-24T01:58:12.835Z,9.92
2023-04-24T02:00:41.030Z,9.87
2023-04-24T02:03:09.407Z,9.67
2023-04-24T02:05:37.820Z,9.87
2023-04-24T02:08:11.936Z,9.93
2023-04-24T02:10:40.252Z,9.86
2023-04-24T02:13:08.551Z,9.95
2023-04-24T02:15:38.262Z,9.63
2023-04-24T02:18:07.812Z,9.96
2023-04-24T02:20:36.505Z,10.07
2023-04-24T02:23:04.690Z,9.97
2023-04-24T02:25:32.956Z,9.88
2023-04-24T02:28:01.135Z,9.92
2023-04-24T02:30:29.314Z,9.89
2023-04-24T02:32:58.883Z,9.76
2023-04-24T02:35:27.348Z,9.68
2023-04-24T02:37:55.622Z,9.81
2023-04-24T02:40:23.824Z,9.62
2023-04-24T02:42:51.999Z,9.69
2023-04-24T02:45:20.250Z,9.55
2023-04-24T02:47:48.516Z,9.50
2023-04-24T02:50:18.760Z,9.51
2023-04-24T02:52:46.981Z,9.53
2023-04-24T02:55:15.395Z,9.51
2023-04-24T02:57:43.644Z,9.59
2023-04-24T03:00:14.328Z,9.58
2023-04-24T03:02:42.686Z,9.57
2023-04-24T03:05:12.954Z,9.44
2023-04-24T03:07:42.486Z,9.45
2023-04-24T03:10:11.669Z,9.40
2023-04-24T03:12:39.910Z,9.42
2023-04-24T03:15:10.152Z,9.33
2023-04-24T03:17:39.182Z,9.14
2023-04-24T03:20:10.149Z,9.19
2023-04-24T03:22:38.605Z,9.06
2023-04-24T03:25:11.664Z,9.08
2023-04-24T03:27:40.334Z,9.10
2023-04-24T03:30:27.253Z,8.98
2023-04-24T03:33:00.801Z,8.97
2023-04-24T03:35:32.219Z,8.90
2023-04-24T03:38:05.220Z,8.93
2023-04-24T03:40:54.144Z,9.14
2023-04-24T03:43:48.582Z,8.94
2023-04-24T03:46:17.652Z,8.99
2023-04-24T03:48:52.694Z,8.95
2023-04-24T03:51:24.815Z,8.98
2023-04-24T03:53:56.186Z,8.96
2023-04-24T03:56:28.364Z,8.80
2023-04-24T03:59:00.123Z,8.84
2023-04-24T04:01:32.952Z,8.79
2023-04-24T04:04:34.392Z,8.78
2023-04-24T04:07:27.066Z,8.77
2023-04-24T04:09:56.255Z,8.79
2023-04-24T04:12:28.413Z,8.81
2023-04-24T04:14:56.624Z,8.70
2023-04-24T04:17:25.418Z,8.83
2023-04-24T04:19:53.868Z,8.71
2023-04-24T04:22:22.066Z,8.78
2023-04-24T04:24:52.530Z,8.80
2023-04-24T04:27:23.643Z,8.77
2023-04-24T04:30:02.400Z,8.80
2023-04-24T04:32:32.408Z,8.87
2023-04-24T04:35:09.028Z,8.92
2023-04-24T04:37:37.911Z,8.96
2023-04-24T04:40:20.860Z,8.98
2023-04-24T04:42:54.931Z,9.00
2023-04-24T04:45:25.483Z,8.98
2023-04-24T04:48:14.847Z,9.01
2023-04-24T04:50:43.426Z,8.92
2023-04-24T04:53:12.158Z,9.00
2023-04-24T04:55:41.336Z,8.90
2023-04-24T04:58:15.776Z,8.98
2023-04-24T05:00:47.230Z,8.91
2023-04-24T05:03:38.393Z,8.95
2023-04-24T05:06:10.961Z,8.88
2023-04-24T05:08:42.709Z,8.94
2023-04-24T05:11:17.058Z,9.03
2023-04-24T05:13:45.412Z,8.86
2023-04-24T05:16:20.314Z,8.94
2023-04-24T05:18:50.130Z,9.01
2023-04-24T05:21:22.797Z,8.95
2023-04-24T05:23:53.366Z,8.81
2023-04-24T05:26:40.300Z,8.81
2023-04-24T05:29:10.042Z,8.71
2023-04-24T05:31:39.717Z,8.71
2023-04-24T05:34:08.385Z,8.63
2023-04-24T05:36:40.964Z,8.57
2023-04-24T05:39:09.511Z,8.57
2023-04-24T05:41:37.846Z,8.48
2023-04-24T05:44:06.235Z,8.52
2023-04-24T05:46:34.798Z,8.62
2023-04-24T05:49:04.767Z,8.63
2023-04-24T05:51:37.825Z,8.56
2023-04-24T05:54:06.349Z,8.52
2023-04-24T05:56:34.812Z,8.50
2023-04-24T05:59:05.606Z,8.53
2023-04-24T06:01:37.108Z,8.66
2023-04-24T06:04:17.465Z,8.59
2023-04-24T06:06:51.785Z,8.52
2023-04-24T06:09:24.777Z,8.53
2023-04-24T06:11:54.500Z,8.52
2023-04-24T06:14:26.113Z,8.61
2023-04-24T06:17:15.678Z,8.37
2023-04-24T06:19:45.849Z,8.48
2023-04-24T06:22:14.586Z,8.46
2023-04-24T06:24:43.326Z,8.28
2023-04-24T06:27:11.544Z,8.36
2023-04-24T06:29:42.915Z,8.25
2023-04-24T06:32:11.345Z,8.43
2023-04-24T06:34:39.669Z,8.23
2023-04-24T06:37:09.271Z,8.30
2023-04-24T06:39:37.480Z,8.21
2023-04-24T06:42:05.816Z,8.28
2023-04-24T06:44:41.578Z,8.24
2023-04-24T06:47:10.582Z,8.18
2023-04-24T06:49:43.786Z,8.23
2023-04-24T06:52:19.400Z,8.07
2023-04-24T06:54:57.167Z,8.18
2023-04-24T06:57:28.318Z,8.18
2023-04-24T06:59:58.953Z,8.02
2023-04-24T07:02:28.303Z,7.24
2023-04-24T07:04:56.553Z,8.38
2023-04-24T07:07:26.285Z,8.37
2023-04-24T07:09:55.115Z,8.41
2023-04-24T07:12:23.357Z,8.60
2023-04-24T07:14:52.452Z,8.91
2023-04-24T07:17:20.741Z,8.95
2023-04-24T07:19:48.974Z,8.96
2023-04-24T07:22:18.016Z,9.26
2023-04-24T07:24:47.691Z,9.10
2023-04-24T07:27:16.328Z,9.00
2023-04-24T07:29:45.536Z,8.94
2023-04-24T07:32:13.943Z,8.74
2023-04-24T07:34:42.271Z,8.41
2023-04-24T07:37:10.513Z,8.52
2023-04-24T07:39:38.768Z,8.65
2023-04-24T07:42:08.327Z,8.22
2023-04-24T07:44:37.027Z,8.51
2023-04-24T07:47:05.408Z,8.72
2023-04-24T07:49:35.039Z,9.13
2023-04-24T07:52:27.310Z,9.33
2023-04-24T07:54:59.483Z,9.49
2023-04-24T07:57:29.151Z,9.42
2023-04-24T07:59:57.455Z,9.51
2023-04-24T08:02:27.667Z,9.58
2023-04-24T08:05:04.374Z,9.71
2023-04-24T08:07:33.278Z,10.05
2023-04-24T08:10:02.696Z,10.20
2023-04-24T08:12:32.462Z,10.15
2023-04-24T08:15:01.269Z,10.25
2023-04-24T08:17:29.683Z,10.05
2023-04-24T08:20:02.414Z,10.22
2023-04-24T08:22:31.364Z,10.13
2023-04-24T08:25:02.736Z,10.24
2023-04-24T08:27:32.340Z,10.10
2023-04-24T08:30:00.841Z,9.53
2023-04-24T08:32:29.940Z,9.94
2023-04-24T08:34:58.395Z,9.79
2023-04-24T08:37:28.172Z,9.66
2023-04-24T08:39:56.400Z,9.31
2023-04-24T08:42:25.305Z,9.74
2023-04-24T08:44:54.974Z,9.84
2023-04-24T08:47:29.678Z,9.96
2023-04-24T08:49:59.738Z,10.13
2023-04-24T08:52:29.495Z,10.21
2023-04-24T08:54:58.694Z,10.09
2023-04-24T08:57:28.147Z,10.12
2023-04-24T09:00:00.229Z,10.17
2023-04-24T09:02:29.091Z,9.95
2023-04-24T09:04:59.089Z,9.82
2023-04-24T09:07:29.660Z,10.16
2023-04-24T09:09:58.645Z,10.79
2023-04-24T09:12:27.002Z,10.78
2023-04-24T09:14:57.031Z,10.91
2023-04-24T09:17:27.999Z,10.75
2023-04-24T09:19:56.960Z,10.74
2023-04-24T09:22:25.767Z,10.02
2023-04-24T09:25:06.589Z,10.05
2023-04-24T09:27:36.152Z,10.08
2023-04-24T09:30:08.512Z,9.91
2023-04-24T09:32:36.756Z,10.40
2023-04-24T09:35:11.420Z,10.45
2023-04-24T09:37:42.321Z,10.67
2023-04-24T09:40:15.895Z,10.83
2023-04-24T09:42:47.554Z,10.98
2023-04-24T09:45:17.222Z,11.32
2023-04-24T09:47:45.697Z,11.51
2023-04-24T09:50:17.015Z,11.40
2023-04-24T09:52:48.004Z,11.23
2023-04-24T09:55:20.930Z,11.24
2023-04-24T09:57:55.123Z,10.92
2023-04-24T10:00:30.143Z,10.83
2023-04-24T10:03:00.492Z,10.56
2023-04-24T10:05:33.885Z,10.46
2023-04-24T10:08:07.086Z,10.38
2023-04-24T10:11:02.445Z,10.40
2023-04-24T10:13:38.220Z,10.25
2023-04-24T10:16:08.607Z,10.51
2023-04-24T10:18:37.492Z,10.22
2023-04-24T10:21:05.762Z,10.80
2023-04-24T10:23:34.894Z,10.56
2023-04-24T10:26:03.357Z,10.36
2023-04-24T10:28:34.226Z,10.17
2023-04-24T10:31:03.246Z,9.86
2023-04-24T10:33:33.891Z,9.96
2023-04-24T10:36:07.236Z,10.10
2023-04-24T10:38:37.016Z,10.23
2023-04-24T10:41:17.215Z,10.15
2023-04-24T10:43:45.519Z,10.01
2023-04-24T10:46:22.010Z,10.22
2023-04-24T10:48:56.932Z,10.17
2023-04-24T10:51:26.867Z,10.38
2023-04-24T10:53:55.107Z,10.01
2023-04-24T10:56:24.171Z,10.12
2023-04-24T10:58:55.483Z,9.97
2023-04-24T11:01:28.707Z,9.86
2023-04-24T11:04:00.443Z,10.00
2023-04-24T11:06:33.615Z,10.15
2023-04-24T11:09:08.356Z,10.29
2023-04-24T11:11:41.484Z,10.16
2023-04-24T11:14:10.544Z,10.04
2023-04-24T11:16:45.615Z,10.27
2023-04-24T11:19:25.926Z,10.53
2023-04-24T11:22:02.134Z,10.46
2023-04-24T11:24:33.516Z,10.31
2023-04-24T11:27:08.867Z,10.27
2023-04-24T11:29:48.864Z,10.02
2023-04-24T11:32:26.959Z,9.93
2023-04-24T11:35:01.404Z,9.21
2023-04-24T11:37:31.698Z,9.37
2023-04-24T11:40:01.460Z,8.68
2023-04-24T11:42:31.582Z,8.31
2023-04-24T11:45:01.421Z,8.25
2023-04-24T11:47:32.003Z,8.39
2023-04-24T11:50:03.021Z,8.51
2023-04-24T11:52:31.976Z,8.54
2023-04-24T11:55:01.835Z,8.70
2023-04-24T11:57:34.587Z,8.80
2023-04-24T12:00:04.471Z,9.01
2023-04-24T12:02:40.838Z,9.20
2023-04-24T12:05:22.107Z,9.49
2023-04-24T12:07:50.972Z,9.53
2023-04-24T12:10:23.284Z,9.41
2023-04-24T12:12:52.651Z,9.61
2023-04-24T12:15:22.978Z,9.42
2023-04-24T12:17:53.977Z,9.60
2023-04-24T12:20:30.253Z,9.53
2023-04-24T12:23:00.107Z,9.43
2023-04-24T12:25:30.176Z,9.50
2023-04-24T12:28:12.940Z,8.35
2023-04-24T12:30:45.311Z,9.22
2023-04-24T12:33:13.748Z,8.63
2023-04-24T12:35:43.595Z,8.86
2023-04-24T12:38:14.090Z,9.09
2023-04-24T12:40:43.608Z,8.97
2023-04-24T12:43:20.039Z,8.69
2023-04-24T12:45:49.813Z,8.35
2023-04-24T12:48:18.114Z,8.34
2023-04-24T12:50:47.876Z,7.65
2023-04-24T12:53:17.074Z,8.43
2023-04-24T12:55:45.781Z,8.56
2023-04-24T12:58:14.073Z,8.78
2023-04-24T13:00:44.512Z,9.18
2023-04-24T13:03:13.076Z,9.88
2023-04-24T13:05:41.551Z,9.83
2023-04-24T13:08:11.088Z,10.24
2023-04-24T13:10:39.333Z,10.14
2023-04-24T13:13:07.754Z,10.27
2023-04-24T13:15:36.496Z,10.35
2023-04-24T13:18:05.040Z,10.19
2023-04-24T13:20:33.305Z,10.08
2023-04-24T13:23:01.674Z,10.12
2023-04-24T13:25:40.049Z,10.27
2023-04-24T13:28:08.398Z,10.45
2023-04-24T13:30:36.665Z,10.45
2023-04-24T13:33:05.104Z,10.45
2023-04-24T13:35:33.295Z,10.16
2023-04-24T13:38:04.907Z,10.36
2023-04-24T13:40:35.039Z,10.10
2023-04-24T13:43:03.716Z,10.06
2023-04-24T13:45:31.889Z,9.98
2023-04-24T13:48:00.119Z,9.73
2023-04-24T13:50:28.365Z,9.48
2023-04-24T13:52:57.697Z,8.74
2023-04-24T13:55:25.860Z,8.60
2023-04-24T13:57:56.060Z,8.48
2023-04-24T14:00:24.518Z,8.60
2023-04-24T14:02:52.787Z,8.89
2023-04-24T14:05:28.890Z,9.02
2023-04-24T14:07:57.128Z,9.41
2023-04-24T14:10:25.411Z,9.68
2023-04-24T14:12:55.093Z,9.83
2023-04-24T14:15:23.277Z,10.00
2023-04-24T14:17:51.636Z,10.45
2023-04-24T14:20:20.106Z,10.49
2023-04-24T14:22:48.300Z,10.65
2023-04-24T14:25:17.167Z,10.53
2023-04-24T14:27:45.383Z,10.52
2023-04-24T14:30:16.452Z,10.24
2023-04-24T14:32:44.891Z,10.14
2023-04-24T14:35:13.170Z,10.05
2023-04-24T14:37:42.174Z,9.90
2023-04-24T14:40:29.895Z,9.84
2023-04-24T14:43:00.228Z,8.59
2023-04-24T14:45:29.915Z,9.60
2023-04-24T14:47:58.679Z,9.56
2023-04-24T14:50:28.955Z,9.55
2023-04-24T14:52:58.420Z,9.57
2023-04-24T14:55:27.150Z,9.53
2023-04-24T14:57:55.643Z,9.53
2023-04-24T15:00:25.243Z,9.61
2023-04-24T15:02:56.410Z,9.60
2023-04-24T15:05:26.369Z,9.62
2023-04-24T15:07:55.365Z,9.93
2023-04-24T15:10:24.869Z,10.17
2023-04-24T15:12:53.464Z,10.24
2023-04-24T15:15:21.945Z,10.30
2023-04-24T15:17:50.194Z,10.32
2023-04-24T15:20:20.317Z,10.42
2023-04-24T15:22:48.711Z,10.24
2023-04-24T15:25:17.355Z,10.35
2023-04-24T15:27:47.267Z,10.32
2023-04-24T15:30:16.046Z,10.23
2023-04-24T15:32:44.703Z,10.29
2023-04-24T15:35:13.058Z,10.23
2023-04-24T15:37:43.063Z,10.43
2023-04-24T15:40:14.214Z,10.38
2023-04-24T15:42:43.381Z,10.43
2023-04-24T15:45:13.300Z,10.67
2023-04-24T15:47:41.804Z,10.59
2023-04-24T15:50:14.131Z,10.46
2023-04-24T15:52:44.538Z,10.53
2023-04-24T15:55:13.125Z,10.77
2023-04-24T15:57:41.308Z,10.45
2023-04-24T16:00:11.176Z,10.53
2023-04-24T16:02:42.677Z,10.61
2023-04-24T16:05:11.772Z,10.86
2023-04-24T16:07:43.388Z,11.04
2023-04-24T16:10:13.024Z,10.91
2023-04-24T16:12:41.261Z,10.68
2023-04-24T16:15:10.754Z,10.59
2023-04-24T16:17:43.169Z,10.65
2023-04-24T16:20:13.309Z,10.41
2023-04-24T16:22:43.056Z,10.47
2023-04-24T16:25:11.894Z,10.38
2023-04-24T16:27:40.357Z,10.33
2023-04-24T16:30:10.675Z,10.25
2023-04-24T16:32:41.604Z,10.24
2023-04-24T16:35:11.413Z,10.03
2023-04-24T16:37:40.371Z,9.98
2023-04-24T16:40:12.364Z,9.86
2023-04-24T16:42:40.753Z,9.84
2023-04-24T16:45:11.021Z,9.96
2023-04-24T16:47:39.668Z,9.87
2023-04-24T16:50:09.952Z,9.83
2023-04-24T16:52:39.508Z,9.64
2023-04-24T16:55:10.600Z,9.78
2023-04-24T16:57:39.355Z,8.72
2023-04-24T17:00:11.648Z,9.89
2023-04-24T17:02:40.643Z,9.88
2023-04-24T17:05:11.027Z,9.86
2023-04-24T17:07:40.814Z,10.05
2023-04-24T17:10:11.645Z,9.78
2023-04-24T17:12:40.135Z,9.80
2023-04-24T17:15:09.629Z,9.89
2023-04-24T17:17:38.295Z,9.86
2023-04-24T17:20:21.168Z,9.75
2023-04-24T17:22:51.835Z,9.74
2023-04-24T17:25:21.969Z,9.56
2023-04-24T17:27:51.449Z,9.47
2023-04-24T17:30:21.158Z,9.68
2023-04-24T17:32:49.722Z,9.31
2023-04-24T17:35:18.970Z,9.21
2023-04-24T17:37:48.217Z,9.10
2023-04-24T17:40:17.845Z,9.12
2023-04-24T17:42:48.028Z,9.08
2023-04-24T17:45:16.662Z,8.94
2023-04-24T17:47:45.107Z,8.99
2023-04-24T17:50:14.354Z,8.97
2023-04-24T17:52:43.667Z,8.83
2023-04-24T17:55:12.920Z,7.91
2023-04-24T17:57:41.273Z,8.61
2023-04-24T18:00:13.320Z,8.65
2023-04-24T18:02:41.658Z,7.34
2023-04-24T18:05:10.532Z,8.50
2023-04-24T18:07:39.263Z,8.13
2023-04-24T18:10:09.321Z,7.36
2023-04-24T18:12:37.588Z,7.84
2023-04-24T18:15:14.471Z,7.61
2023-04-24T18:17:44.792Z,7.77
2023-04-24T18:20:14.420Z,7.88
2023-04-24T18:22:43.666Z,7.34
2023-04-24T18:25:12.923Z,7.72
2023-04-24T18:27:42.351Z,7.93
2023-04-24T18:30:14.702Z,7.65
2023-04-24T18:32:44.710Z,7.78
2023-04-24T18:35:12.969Z,7.66
2023-04-24T18:37:41.559Z,7.70
2023-04-24T18:40:11.270Z,7.90
2023-04-24T18:42:39.757Z,7.77
2023-04-24T18:45:10.089Z,7.85
2023-04-24T18:47:39.573Z,7.84
2023-04-24T18:50:11.202Z,7.87
2023-04-24T18:52:39.533Z,7.94
2023-04-24T18:55:09.838Z,7.92
2023-04-24T18:57:38.140Z,7.79
2023-04-24T19:00:08.370Z,7.53
2023-04-24T19:02:36.737Z,7.87
2023-04-24T19:05:05.506Z,7.91
2023-04-24T19:07:35.076Z,7.22
2023-04-24T19:10:03.350Z,7.65
2023-04-24T19:12:31.647Z,7.89
2023-04-24T19:15:00.256Z,7.68
2023-04-24T19:17:28.536Z,7.71
2023-04-24T19:19:56.807Z,7.77
2023-04-24T19:22:25.286Z,7.63
2023-04-24T19:24:54.836Z,7.94
2023-04-24T19:27:23.037Z,7.89
2023-04-24T19:29:52.071Z,7.84
2023-04-24T19:32:23.076Z,7.82
2023-04-24T19:34:51.550Z,7.12
2023-04-24T19:37:19.776Z,7.78
2023-04-24T19:39:48.067Z,7.75
2023-04-24T19:42:21.165Z,7.53
2023-04-24T19:44:54.111Z,7.60
2023-04-24T19:47:22.390Z,7.66
2023-04-24T19:49:51.254Z,7.56
2023-04-24T19:52:21.262Z,7.58
2023-04-24T19:54:51.232Z,7.55
2023-04-24T19:57:20.939Z,7.55
2023-04-24T19:59:49.193Z,7.61
2023-04-24T20:02:17.674Z,7.64
2023-04-24T20:04:46.357Z,7.53
2023-04-24T20:07:15.665Z,7.61
2023-04-24T20:09:43.940Z,6.56
2023-04-24T20:12:12.212Z,7.67
2023-04-24T20:14:42.035Z,7.73
2023-04-24T20:17:10.431Z,7.78
2023-04-24T20:19:40.989Z,7.53
2023-04-24T20:22:11.284Z,7.77
2023-04-24T20:24:40.883Z,7.75
2023-04-24T20:27:09.249Z,7.79
2023-04-24T20:29:37.619Z,7.74
2023-04-24T20:32:07.579Z,7.79
2023-04-24T20:34:35.901Z,7.82
2023-04-24T20:37:05.346Z,7.86
2023-04-24T20:39:33.617Z,7.68
2023-04-24T20:42:01.915Z,7.91
2023-04-24T20:44:33.745Z,7.83
2023-04-24T20:47:02.214Z,7.82
2023-04-24T20:49:31.911Z,7.83
2023-04-24T20:52:00.162Z,7.92
2023-04-24T20:54:28.352Z,7.94
2023-04-24T20:56:57.960Z,7.84
2023-04-24T20:59:26.362Z,7.92
2023-04-24T21:01:54.702Z,7.88
2023-04-24T21:04:23.455Z,7.81
2023-04-24T21:06:53.172Z,7.87
2023-04-24T21:09:21.410Z,7.87
2023-04-24T21:11:49.591Z,7.81
2023-04-24T21:14:18.021Z,7.88
2023-04-24T21:16:46.380Z,7.97
2023-04-24T21:19:14.810Z,7.93
2023-04-24T21:21:42.994Z,7.73
2023-04-24T21:24:12.534Z,7.95
2023-04-24T21:26:41.088Z,7.94
2023-04-24T21:29:09.299Z,7.86
2023-04-24T21:31:37.549Z,7.94
2023-04-24T21:34:06.313Z,7.70
2023-04-24T21:36:34.797Z,7.71
2023-04-24T21:39:02.994Z,7.69
2023-04-24T21:41:32.852Z,7.74
2023-04-24T21:44:01.096Z,7.69
2023-04-24T21:46:29.267Z,7.58
2023-04-24T21:48:57.489Z,7.56
2023-04-24T21:51:25.715Z,7.66
2023-04-24T21:53:53.925Z,7.49
2023-04-24T21:56:22.275Z,7.57
2023-04-24T21:58:52.135Z,7.44
2023-04-24T22:01:21.174Z,7.53
2023-04-24T22:03:59.976Z,7.58
2023-04-24T22:06:53.641Z,7.59
2023-04-24T22:09:28.296Z,7.36
2023-04-24T22:12:00.042Z,7.48
2023-04-24T22:14:29.864Z,7.38
2023-04-24T22:16:58.151Z,7.29
2023-04-24T22:19:28.183Z,7.47
2023-04-24T22:21:57.163Z,7.38
2023-04-24T22:24:25.397Z,7.28
2023-04-24T22:26:53.569Z,7.36
2023-04-24T22:29:21.817Z,7.34
2023-04-24T22:31:51.534Z,7.25
2023-04-24T22:34:19.841Z,7.27
2023-04-24T22:36:48.027Z,7.12
2023-04-24T22:39:17.596Z,7.22
2023-04-24T22:41:45.911Z,7.20
2023-04-24T22:44:14.182Z,7.28
2023-04-24T22:46:42.454Z,7.24
2023-04-24T22:49:12.185Z,7.19
2023-04-24T22:51:41.696Z,7.31
2023-04-24T22:54:09.917Z,7.22
2023-04-24T22:56:38.745Z,7.37
2023-04-24T22:59:07.342Z,7.27
2023-04-24T23:01:35.583Z,7.24
2023-04-24T23:04:04.318Z,7.14
2023-04-24T23:06:33.994Z,7.21
2023-04-24T23:09:08.228Z,7.12
2023-04-24T23:11:37.565Z,7.08
2023-04-24T23:14:05.808Z,7.07
2023-04-24T23:16:37.555Z,6.93
2023-04-24T23:19:06.025Z,7.18
2023-04-24T23:21:35.688Z,7.09
2023-04-24T23:24:03.959Z,6.48
2023-04-24T23:26:32.217Z,7.08
2023-04-24T23:29:00.546Z,7.13
2023-04-24T23:31:28.849Z,7.00
2023-04-24T23:34:00.150Z,7.05
2023-04-24T23:36:28.525Z,7.06
2023-04-24T23:38:58.267Z,7.15
2023-04-24T23:41:26.791Z,6.98
2023-04-24T23:43:55.003Z,6.90
2023-04-24T23:46:23.236Z,6.95
2023-04-24T23:48:51.501Z,6.93
2023-04-24T23:51:19.871Z,6.83
2023-04-24T23:53:48.252Z,6.93
2023-04-24T23:56:18.092Z,6.95
2023-04-24T23:58:46.695Z,6.92
